Accueil
METAR-TAF:

METAR-TAF

Aéroports :

Clayton Lake, Maine, États-Unis

latitude: 46-37N, longitude: 069-32W, altitude: 314 m

Observation

Le bulletin a été fait il y a 1 heure et 3 minutes, à 03:16 UTC
Vent 4 kt de direction variable
Température -3°C
Humidité 93%
Pression 1012 hPa

METAR: K40B 240316Z AUTO VRB04KT M03/M04 A2989 RMK AO1 SLP146 T10341037 57049 P0002 60003

Heure: 23:19 (04:19 UTC)


TAF: absent

Observations et prévisions météorologiques de plus de 4000 aéroports (messages METAR et TAF).

Les stations disponibles sont représentées par des disques jaunes et rouges sur la carte.

Passer la souris dessus pour voir le nom de la station.

Cliquer dessus pour voir les observations et prévisions météorologiques.

Pour changer de carte: cliquez sur les boutons verts avec une croix noire pour zoomer, sur le bouton vert avec un tiret pour effectuer un zoom arrière, ou sur les flèches vertes pour les cartes adjacentes.


METAR-TAF: